Category Name Link Size Date
Audio - Lossless Maebashi Witches BD CDs 358.2 MiB 2025-11-10 23:19 7 0 324
Audio - Lossless Charlu - 5FEET (2025) [FLAC] 217.2 MiB 2025-11-10 13:22 3 1 353
Audio - Lossless [251111]LEZEL - Can't Stop[Amazon][FLAC][48kHz/24bit] 77.4 MiB 2025-11-10 12:59 2 1 315
Audio - Lossless Yomitan Akane - Jack-Up (2025) [FLAC] 18.5 MiB 2025-11-10 12:48 2 1 275
Audio - Lossless [251111]青木陽菜 - ダ・カーポ 〜奏で舞うメロディ〜[Amazon][FLAC][96kHz/24bit] 203.5 MiB 2025-11-10 12:37 3 1 410
Audio - Lossless [JMAX] [2025.11.11] ゲーム「D.C. Re:tune ~ダ・カーポ~ リチューン」OPテーマ「ダ・カーポ ~奏で舞うメロディ~」/青木陽菜 [FLAC 96kHz/24bit] 202.7 MiB 2025-11-10 11:18 7 0 1457
Audio - Lossless [JMAX] [2025.11.11] BanG Dream! Poppin'Party - じょいふる (Cover) [FLAC 96kHz/24bit] 65.3 MiB 2025-11-10 11:18 11 0 1277
Audio - Lossless Mai Yamane - Will (1982) [FLAC] 216.1 MiB 2025-11-10 01:34 6 0 594
Audio - Lossless Mai Yamane - 1958 (1989) [FLAC] 304.1 MiB 2025-11-09 18:12 4 0 585
Audio - Lossless Keiko Utsumi - Ren'ai Shousetsu (1992) [FLAC] 340.0 MiB 2025-11-09 15:12 3 1 510
Audio - Lossless [JMAX] [2025.11.10] ラブライブ!蓮ノ空女学院スクールアイドルクラブ PRINCEε>ε> - IcHiGo milK love [FLAC] 31.3 MiB 2025-11-09 11:01 10 0 1203
Audio - Lossless Utada Hikaru - Hatsukoi (2018) [FLAC] 341.9 MiB 2025-11-08 22:34 4 0 948
Audio - Lossless Utada Hikaru - Deep River (2002) [FLAC] 392.3 MiB 2025-11-08 22:31 5 0 1068
Audio - Lossless Utada Hikaru - SCIENCE FICTION (2024) [FLAC] 829.3 MiB 2025-11-08 18:47 7 0 1265
Audio - Lossless Ling Cage (灵笼 INCARNATION) S2 Update OST [FLAC] 1.1 GiB 2025-11-08 10:49 3 0 174
Audio - Lossless White Snake: Afloat (白蛇:浮生) OST [FLAC] 371.4 MiB 2025-11-08 07:16 2 2 170
Audio - Lossless Green Snake (白蛇2:青蛇劫起) OST [FLAC 48kHz-24bits] 878.9 MiB 2025-11-08 07:14 2 1 148
Audio - Lossless Green Snake (白蛇2:青蛇劫起) OST [FLAC 192khz-24bits] 2.6 GiB 2025-11-08 07:14 5 0 158
Audio - Lossless White Snake (白蛇:缘起) OST [FLAC] 294.4 MiB 2025-11-08 07:12 2 1 168
Audio - Lossless New Gods: Yang Jian (新神榜:杨戬) OST [FLAC] 415.5 MiB 2025-11-08 07:11 3 1 161
Audio - Lossless New Gods: Nezha Reborn (新神榜:哪吒重生) OST [FLAC] 314.6 MiB 2025-11-08 07:09 2 2 154
Audio - Lossless Ne Zha 2 (哪吒之魔童闹海) OST [FLAC] 1.3 GiB 2025-11-08 07:08 6 0 225
Audio - Lossless Ne Zha (哪吒之魔童降世) OST [FLAC] 818.7 MiB 2025-11-08 07:07 4 1 189
Audio - Lossless Curious Tales of a Temple (聊斋:兰若寺) OST [FLAC] 440.8 MiB 2025-11-08 07:05 5 2 179
Audio - Lossless World of Immortals (长生界) OST Update [FLAC] 309.2 MiB 2025-11-08 06:59 2 0 144
Audio - Lossless 2 Momoko Horaguchi - Nude (2000) [FLAC] 101.0 MiB 2025-11-07 19:32 4 0 380
Audio - Lossless Maléfices - 2・½ Deux Demis (1995) [FLAC] 165.6 MiB 2025-11-07 19:26 3 0 359
Audio - Lossless Hitomi Ishikawa - Inside / Outside (1980) [FLAC] 390.9 MiB 2025-11-07 19:18 6 0 633
Audio - Lossless Mash - Mash (1981) [FLAC] 241.0 MiB 2025-11-07 18:14 3 2 434
Audio - Lossless Angela Aki - アンジェラ・アキ sings『この世界の片隅に』 (2024) [FLAC] 283.0 MiB 2025-11-07 17:59 6 0 869
Audio - Lossless Mirei Touyama - Tokyo Stories (2025) [FLAC] 311.2 MiB 2025-11-07 15:32 1 0 463
Audio - Lossless Mirei Touyama - No Ordinary Love (2020) [FLAC] 25.5 MiB 2025-11-07 15:28 1 2 355
Audio - Lossless Mirei Touyama - Dear My Boo (2018) [FLAC] 119.8 MiB 2025-11-07 15:24 2 0 365
Audio - Lossless Mirei Touyama - Answer (2018) [FLAC] 348.7 MiB 2025-11-07 13:00 1 0 451
Audio - Lossless Mirei Touyama - Take Me Away (2020) [FLAC] 218.4 MiB 2025-11-07 12:56 2 1 430
Audio - Lossless [JMAX] [2025.12.10] ClariS×魔法少女まどか☆マギカ コンセプトEP「リンクス」[FLAC 96kHz/24bit] 378.1 MiB 2025-11-07 11:10 9 0 1826
Audio - Lossless [JMAX] [2025.11.08] 映画「ラブライブ!虹ヶ咲学園スクールアイドル同好会 完結編 第2章」主題歌ミニアルバム「約束になれ僕らの歌」/虹ヶ咲学園スクールアイドル同好会 [FLAC] 378.3 MiB 2025-11-07 11:05 18 1 1810
Audio - Lossless Maléfices - Les Clandestins (1995) [FLAC] 174.8 MiB 2025-11-07 04:05 1 0 405
Audio - Lossless [HAYAKU][2024.12.04] TVアニメ「七つの大罪 黙示録の四騎士 第2期」OPテーマ - UVERworld - MMH [期間生産限定盤] [CD][FLAC+CUE+LOG+BK+BDMV][SRCL-13083~4] 1.4 GiB 2025-11-07 02:47 3 0 384
Audio - Lossless [JMAX] [2025.10.29] イキヅライブ! LOVELIVE! BLUEBIRD 佐々木翔音 1stシングル「イキタクナイevery day」[FLAC 48kHz/24bit] 282.5 MiB 2025-11-06 11:06 6 0 1160
Audio - Lossless [JMAX] [2025.10.29] イキヅライブ! LOVELIVE! BLUEBIRD 山田真緑 1stシングル「Little Green委員会」[FLAC 48kHz/24bit] 274.6 MiB 2025-11-06 11:06 6 0 1159
Audio - Lossless [HAYAKU][2024.11.27] TVアニメ「ひとりぼっちの異世界攻略」EDテーマ - 鯨木 - ひとりぼっちの異世界攻略「ハローとグッバイ」 [通常盤] [CD][FLAC+CUE+LOG+BK][PCCA-06356] 734.7 MiB 2025-11-06 00:06 2 0 422
Audio - Lossless [HAYAKU][2024.11.27] TVアニメ「魔王様、リトライ!R」OPテーマ - ASCA - 明日世界が終わるとしても [期間生産限定盤] [CD][FLAC+CUE+LOG+BK+BDMV][VVCL-2633~4] 1.4 GiB 2025-11-06 00:04 3 0 460
Audio - Lossless [HAYAKU][2024.11.13] TVアニメ「魔法使いになれなかった女の子の話」EDテーマ - halca - 瞬間最大風速 [期間生産限定盤] [CD][FLAC+CUE+LOG+BK+ISO][VVCL-2593~4] 1.1 GiB 2025-11-06 00:01 1 0 383
Audio - Lossless [2025.11.06]崩坏 星穹铁道 Honkai Star Rail - 昔涟 Ripples of Past Reverie【昔涟 Cyrene Animated Short Single】[FLAC 48kHz 24bit] 196.1 MiB 2025-11-05 13:20 12 1 969
Audio - Lossless [J-SONGS] Judy And Mary Complete Discography [albums+singles+dvds] 44.4 GiB 2025-11-05 01:48 2 5 475
Audio - Lossless [HAYAKU][2024.11.13] TVアニメ「夏目友人帳 漆」EDテーマ - 近藤利樹 - こまりわらい [期間生産限定盤] [CD][FLAC+CUE+LOG+BK+BDMV][AICL-4651~2] 2.2 GiB 2025-11-05 01:18 2 0 374
Audio - Lossless [2025.11.05] 松田彬人 - 響け! ユーフォニアム 10周年吹奏楽アルバム「espressivo」 [WEB][96kHz/24bit][FLAC] 1003.6 MiB 2025-11-04 14:33 5 1 1041
Audio - Lossless [JMAX] [2025.11.05] TVアニメ「かくりよの宿飯 弐」OP&EDテーマ「とおりゃんせ/涙のレシピ」/東山奈央 [FLAC 48kHz/24bit] 271.4 MiB 2025-11-04 13:58 6 0 1636
Audio - Lossless [JMAX] [2025.11.05] ラブライブ!スーパースター!! Love Live! Superstar!! Liella! 7th LoveLive! ~Fly! MUSIC WORLD♪~ テーマソング「OPEN THE G☆TE!!!」/Liella! [FLAC 48kHz/24bit] 107.1 MiB 2025-11-04 11:02 17 0 1640
Audio - Lossless [JMAX] [2025.11.04] BanG Dream! 夢限大みゅーたいぷ - Calling [FLAC 48kHz/24bit] 43.2 MiB 2025-11-03 11:01 10 0 1161
Audio - Lossless Various Artists - Una-Chance!3 (2025) [FLAC] 1.0 GiB 2025-11-02 18:08 1 0 289
Audio - Lossless [JMAX] [2025.11.03] TVアニメ「ちゃんと吸えない吸血鬼ちゃん」EDテーマ「線香花火」/H△G feat.石川月菜(CV.田中美海) [FLAC 48kHz/24bit] 39.7 MiB 2025-11-02 11:02 7 0 1722
Audio - Lossless 2 [2025.11.01]アサヒスーパードライTVCMタイアップソング「FMP」/B'z[FLAC] 24.8 MiB 2025-11-02 04:27 3 0 970
Audio - Lossless Maiko Okamoto - Heart no Tobira +8 (1985) [FLAC] 485.9 MiB 2025-11-02 03:14 4 0 511
Audio - Lossless Various Artists - ACIDMAN Tribute Works (2025) [FLAC] 334.0 MiB 2025-11-02 02:41 12 0 568
Audio - Lossless Yuriko Nakamura - Tokino Hanataba (1988) [FLAC] 184.7 MiB 2025-11-02 01:31 2 0 512
Audio - Lossless Kukikodan - Keshikiikku (2023) [FLAC] 270.8 MiB 2025-11-02 00:41 1 0 415
Audio - Lossless Mirei Touyama - still (2021) [FLAC] 203.6 MiB 2025-11-01 19:32 2 0 419
Audio - Lossless Bonnie Pink - Even So (2004) [FLAC] 315.4 MiB 2025-11-01 19:27 3 0 648
Audio - Lossless [2025.11.01]鸣潮 Wuthering Waves - 群星交错 音乐特辑 Stars Intertwined Music Collection Vol.2【Character PV Collection】[FLAC 48kHz 24bit] 771.2 MiB 2025-11-01 14:45 18 1 817
Audio - Lossless Bonnie Pink - Infinity (2023) [FLAC] 372.3 MiB 2025-11-01 14:13 5 0 677
Audio - Lossless Sandy Lam - 憶蓮 (1987) [FLAC] 267.7 MiB 2025-11-01 14:03 3 0 411
Audio - Lossless Upiko - Compass (2024) [FLAC] 382.9 MiB 2025-11-01 03:29 3 0 404
Audio - Lossless Utada Hikaru - First Love (2022 Mix) (2022) [FLAC] 53.1 MiB 2025-11-01 03:10 2 0 704
Audio - Lossless Narumi Yasuda - Nausicaä of the Valley of the Wind (2024 ver.) (2024) [FLAC] 57.1 MiB 2025-10-31 21:22 3 0 669
Audio - Lossless Utada Hikaru - 初恋 (2022 Remastering) (2022) [FLAC] 30.1 MiB 2025-10-31 21:11 8 0 749
Audio - Lossless Elaiza - テキトーLOVE (2025) [FLAC] 20.6 MiB 2025-10-31 20:56 1 0 367
Audio - Lossless Mone Kamishiraishi - note (2020) [FLAC] 306.5 MiB 2025-10-31 20:46 4 0 451
Audio - Lossless XinU - A.O.R - Adult Oriented Romance (2024) [FLAC] 325.3 MiB 2025-10-31 20:32 3 0 285
Audio - Lossless indigo la End - PULSATE (2018) [FLAC] 354.0 MiB 2025-10-31 20:19 3 0 402
Audio - Lossless [JMAX] [2025.11.01] 映画「羅小黒戦記2」主題歌「Little Bouquet」/Aimer [FLAC 48kHz/24bit] 53.2 MiB 2025-10-31 11:29 4 0 1614
Audio - Lossless [JMAX] [2025.11.01] 学園アイドルマスター 有村麻央 - 見て [FLAC 96kHz/24bit] 188.2 MiB 2025-10-31 11:15 4 0 1334
Audio - Lossless [JMAX] [2025.11.01] ラブライブ!蓮ノ空女学院スクールアイドルクラブ - はじまりの羽音 [FLAC] 31.2 MiB 2025-10-31 11:02 7 0 1277
Audio - Lossless [2025.10.31]鸣潮 Wuthering Waves - 云山况是客中过 Traveler over the Mountains【黎那汐塔 Rinascita OST12】[FLAC 48kHz 24bit] 193.5 MiB 2025-10-31 10:59 19 1 749